Alameda, New Mexico
Current Conditions -  °F | °C
As of 1:48 PM on Sunday 23 Nov 2014 (Local Time) from KAEG Reporting Station
Scattered Clouds Scattered Clouds  
Wind Chill: 32°   Ceiling: Unl
Heat Index: 43°   Visibility: 10mi
Dew Point: 10°   Wind: 30mph
Humidity: 27%   Direction: 280°W
Pressure: 29.87"   Gusts: 41mph
Location:  35.1991°N, 106.662°W
Report Text: KAEG 232048Z 28026G36KT 10SM SCT050 SCT090 06/M12 A2987
Loading
Personal Weather Stations






























Interactive Weather Map New forecast layout! Learn more

10-Day Weather Forecast

Advertisements
Track Severe Weather on mobile